Terminal Aerodrome Forecast
Issued by NWS Tampa Bay Area, FL

Home | Current Version | Previous Version | Text Only | Print | Product List | Glossary On
Versions: 1 2 3 4 5 6 7 8 9 10 11 12 13 14
804
FTUS42 KTBW 242320
TAFSRQ
TAF
KSRQ 242320Z 2500/2524 27007KT P6SM FEW040 SCT100 BKN250
     FM250200 14004KT P6SM VCSH SCT040 BKN100
     FM250400 00000KT P6SM FEW030 SCT100 SCT250
     FM251400 14006KT P6SM SCT030 SCT100
     FM251700 22008KT P6SM VCTS SCT040CB SCT100
     FM252100 27009KT P6SM SCT045 BKN100=

USA.gov is the U.S. government's official web portal to all federal, state and local government web resources and services.